createdAt,value
2019-03-21T00:00:58.407Z,9.00
2019-03-21T00:03:27.575Z,7.37
2019-03-21T00:05:56.713Z,8.47
2019-03-21T00:08:26.044Z,7.40
2019-03-21T00:11:30.787Z,5.73
2019-03-21T00:14:07.289Z,6.17
2019-03-21T00:16:34.123Z,6.73
2019-03-21T00:19:03.441Z,6.10
2019-03-21T00:21:32.549Z,8.53
2019-03-21T00:24:02.733Z,6.97
2019-03-21T00:26:31.784Z,8.70
2019-03-21T00:29:01.098Z,9.60
2019-03-21T00:31:30.299Z,6.53
2019-03-21T00:33:59.453Z,8.03
2019-03-21T00:36:28.793Z,8.07
2019-03-21T00:38:57.939Z,8.60
2019-03-21T00:41:27.178Z,10.17
2019-03-21T00:43:56.242Z,8.03
2019-03-21T00:46:25.396Z,7.90
2019-03-21T00:48:54.527Z,6.83
2019-03-21T00:51:23.809Z,8.23
2019-03-21T00:53:52.852Z,5.90
2019-03-21T00:56:23.881Z,6.40
2019-03-21T00:58:53.160Z,5.70
2019-03-21T01:01:23.439Z,8.60
2019-03-21T01:03:53.658Z,7.60
2019-03-21T01:06:23.915Z,8.63
2019-03-21T01:08:53.044Z,6.83
2019-03-21T01:11:22.223Z,5.67
2019-03-21T01:13:51.428Z,7.60
2019-03-21T01:16:20.697Z,8.30
2019-03-21T01:18:49.880Z,6.10
2019-03-21T01:21:19.016Z,6.37
2019-03-21T01:23:48.286Z,7.73
2019-03-21T01:26:17.582Z,6.90
2019-03-21T01:28:46.818Z,6.57
2019-03-21T01:31:16.092Z,7.47
2019-03-21T01:33:45.148Z,6.57
2019-03-21T01:36:14.354Z,7.53
2019-03-21T01:38:43.379Z,6.57
2019-03-21T01:41:12.799Z,9.17
2019-03-21T01:43:41.901Z,6.80
2019-03-21T01:46:11.559Z,8.47
2019-03-21T01:48:40.642Z,7.93
2019-03-21T01:51:09.755Z,8.40
2019-03-21T01:53:39.072Z,8.13
2019-03-21T01:56:08.604Z,8.47
2019-03-21T01:58:37.585Z,7.67
2019-03-21T02:01:08.854Z,6.03
2019-03-21T02:03:37.770Z,8.47
2019-03-21T02:06:07.027Z,7.17
2019-03-21T02:08:36.280Z,5.73
2019-03-21T02:11:05.472Z,6.70
2019-03-21T02:13:34.525Z,6.47
2019-03-21T02:16:04.932Z,6.03
2019-03-21T02:18:33.885Z,6.53
2019-03-21T02:21:03.103Z,5.27
2019-03-21T02:23:32.302Z,7.60
2019-03-21T02:26:01.416Z,6.83
2019-03-21T02:28:30.635Z,7.73
2019-03-21T02:30:59.929Z,6.27
2019-03-21T02:33:30.824Z,9.30
2019-03-21T02:36:00.279Z,6.40
2019-03-21T02:38:29.622Z,6.40
2019-03-21T02:41:00.303Z,6.90
2019-03-21T02:43:29.494Z,6.37
2019-03-21T02:45:58.995Z,7.20
2019-03-21T02:48:28.260Z,8.53
2019-03-21T02:50:57.345Z,8.90
2019-03-21T02:53:26.477Z,8.50
2019-03-21T02:55:55.615Z,6.70
2019-03-21T02:58:24.778Z,7.63
2019-03-21T03:00:54.181Z,6.43
2019-03-21T03:03:23.226Z,7.80
2019-03-21T03:05:52.338Z,9.17
2019-03-21T03:08:21.507Z,7.87
2019-03-21T03:10:52.224Z,7.53
2019-03-21T03:13:21.426Z,8.13
2019-03-21T03:15:50.672Z,8.97
2019-03-21T03:18:20.007Z,7.47
2019-03-21T03:20:49.126Z,7.87
2019-03-21T03:23:18.268Z,6.90
2019-03-21T03:25:50.750Z,8.33
2019-03-21T03:28:21.076Z,8.03
2019-03-21T03:30:50.575Z,8.67
2019-03-21T03:33:19.859Z,7.33
2019-03-21T03:35:49.133Z,8.50
2019-03-21T03:38:18.394Z,9.87
2019-03-21T03:40:50.233Z,6.57
2019-03-21T03:43:19.692Z,9.47
2019-03-21T03:45:48.816Z,8.00
2019-03-21T03:48:19.947Z,8.17
2019-03-21T03:50:49.167Z,11.70
2019-03-21T03:53:18.548Z,7.90
2019-03-21T03:55:47.674Z,6.60
2019-03-21T03:58:17.927Z,9.70
2019-03-21T04:00:48.052Z,8.87
2019-03-21T04:03:17.352Z,7.80
2019-03-21T04:05:47.822Z,7.63
2019-03-21T04:08:17.502Z,7.93
2019-03-21T04:10:47.882Z,9.40
2019-03-21T04:13:19.230Z,7.30
2019-03-21T04:15:53.389Z,7.87
2019-03-21T04:18:19.529Z,8.53
2019-03-21T04:20:49.103Z,10.70
2019-03-21T04:23:24.084Z,9.47
2019-03-21T04:25:59.275Z,10.57
2019-03-21T04:28:30.459Z,14.87
2019-03-21T04:31:00.744Z,15.33
2019-03-21T04:33:30.049Z,14.33
2019-03-21T04:35:59.529Z,14.47
2019-03-21T04:38:28.771Z,18.47
2019-03-21T04:41:01.989Z,18.33
2019-03-21T04:43:31.586Z,18.43
2019-03-21T04:46:03.610Z,17.73
2019-03-21T04:48:33.414Z,13.00
2019-03-21T04:51:02.824Z,12.03
2019-03-21T04:53:33.133Z,12.10
2019-03-21T04:56:02.630Z,12.63
2019-03-21T04:58:33.133Z,12.10
2019-03-21T05:01:05.767Z,11.57
2019-03-21T05:03:35.245Z,10.80
2019-03-21T05:06:04.663Z,10.23
2019-03-21T05:08:40.248Z,8.87
2019-03-21T05:11:11.394Z,12.13
2019-03-21T05:13:40.508Z,9.37
2019-03-21T05:16:14.813Z,10.93
2019-03-21T05:18:41.944Z,10.70
2019-03-21T05:21:12.431Z,12.47
2019-03-21T05:23:41.659Z,11.60
2019-03-21T05:26:10.804Z,12.67
2019-03-21T05:28:40.882Z,10.57
2019-03-21T05:31:19.737Z,11.47
2019-03-21T05:33:48.890Z,10.20
2019-03-21T05:36:18.073Z,10.33
2019-03-21T05:38:47.292Z,12.23
2019-03-21T05:41:16.570Z,9.80
2019-03-21T05:43:49.306Z,12.60
2019-03-21T05:46:26.552Z,11.17
2019-03-21T05:48:49.998Z,9.87
2019-03-21T05:51:19.391Z,13.87
2019-03-21T05:53:48.658Z,13.80
2019-03-21T05:56:17.898Z,11.93
2019-03-21T05:58:46.897Z,11.47
2019-03-21T06:01:16.080Z,14.23
2019-03-21T06:03:46.943Z,12.10
2019-03-21T06:06:20.147Z,15.73
2019-03-21T06:08:49.382Z,12.87
2019-03-21T06:11:18.339Z,22.87
2019-03-21T06:13:47.566Z,18.80
2019-03-21T06:16:16.608Z,15.57
2019-03-21T06:18:50.044Z,16.03
2019-03-21T06:21:54.065Z,16.80
2019-03-21T06:25:15.678Z,13.03
2019-03-21T06:27:43.332Z,13.03
2019-03-21T06:30:12.499Z,10.40
2019-03-21T06:32:41.524Z,12.90
2019-03-21T06:35:23.079Z,10.83
2019-03-21T06:37:52.805Z,10.80
2019-03-21T06:40:22.168Z,13.37
2019-03-21T06:42:51.497Z,11.93
2019-03-21T06:45:20.588Z,10.70
2019-03-21T06:47:49.652Z,10.13
2019-03-21T06:50:19.054Z,7.97
2019-03-21T06:52:48.071Z,7.67
2019-03-21T06:55:17.178Z,12.23
2019-03-21T06:57:46.650Z,12.37
2019-03-21T07:00:15.858Z,8.40
2019-03-21T07:02:44.905Z,9.87
2019-03-21T07:05:14.210Z,10.47
2019-03-21T07:07:43.383Z,9.78
2019-03-21T07:10:13.029Z,6.67
2019-03-21T07:12:42.353Z,11.33
2019-03-21T07:15:12.220Z,7.55
2019-03-21T07:17:41.415Z,6.30
2019-03-21T07:20:11.668Z,8.88
2019-03-21T07:22:40.870Z,7.03
2019-03-21T07:25:10.109Z,6.87
2019-03-21T07:27:39.248Z,6.62
2019-03-21T07:30:10.241Z,6.20
2019-03-21T07:32:39.508Z,7.67
2019-03-21T07:35:09.077Z,8.30
2019-03-21T07:37:38.273Z,7.43
2019-03-21T07:40:08.649Z,7.23
2019-03-21T07:42:37.962Z,7.83
2019-03-21T07:45:08.064Z,5.67
2019-03-21T07:47:37.240Z,7.00
2019-03-21T07:50:07.333Z,5.55
2019-03-21T07:52:36.504Z,5.73
2019-03-21T07:55:06.648Z,7.57
2019-03-21T07:57:35.749Z,5.03
2019-03-21T08:00:07.134Z,8.87
2019-03-21T08:02:36.353Z,4.50
2019-03-21T08:05:05.742Z,5.78
2019-03-21T08:07:34.818Z,6.13
2019-03-21T08:10:05.017Z,6.07
2019-03-21T08:12:34.149Z,6.10
2019-03-21T08:15:03.599Z,4.97
2019-03-21T08:17:33.797Z,5.40
2019-03-21T08:20:03.157Z,5.40
2019-03-21T08:22:32.145Z,5.77
2019-03-21T08:25:01.406Z,5.67
2019-03-21T08:27:30.743Z,6.13
2019-03-21T08:29:59.879Z,8.30
2019-03-21T08:32:29.120Z,4.70
2019-03-21T08:34:58.268Z,8.30
2019-03-21T08:37:27.353Z,6.23
2019-03-21T08:39:56.473Z,12.87
2019-03-21T08:42:25.601Z,6.40
2019-03-21T08:44:54.901Z,5.90
2019-03-21T08:47:24.065Z,6.10
2019-03-21T08:49:53.183Z,4.93
2019-03-21T08:52:22.329Z,7.40
2019-03-21T08:54:51.436Z,6.63
2019-03-21T08:57:20.719Z,6.17
2019-03-21T08:59:49.751Z,11.27
2019-03-21T09:02:18.763Z,7.20
2019-03-21T09:04:48.122Z,6.10
2019-03-21T09:07:19.997Z,8.50
2019-03-21T09:09:52.395Z,6.90
2019-03-21T09:12:21.551Z,9.35
2019-03-21T09:14:50.554Z,4.63
2019-03-21T09:17:19.695Z,8.97
2019-03-21T09:19:48.762Z,12.70
2019-03-21T09:22:17.886Z,7.27
2019-03-21T09:24:47.013Z,10.32
2019-03-21T09:27:17.216Z,8.03
2019-03-21T09:29:53.339Z,8.17
2019-03-21T09:32:17.535Z,8.13
2019-03-21T09:34:46.821Z,7.30
2019-03-21T09:37:16.189Z,6.25
2019-03-21T09:39:45.342Z,4.63
2019-03-21T09:42:14.347Z,6.97
2019-03-21T09:44:43.510Z,7.10
2019-03-21T09:47:12.807Z,6.40
2019-03-21T09:49:41.861Z,8.37
2019-03-21T09:52:10.912Z,5.37
2019-03-21T09:54:40.169Z,7.90
2019-03-21T09:57:09.293Z,8.40
2019-03-21T09:59:38.387Z,11.87
2019-03-21T10:02:07.669Z,7.77
2019-03-21T10:04:36.806Z,6.80
2019-03-21T10:07:06.197Z,5.90
2019-03-21T10:09:35.394Z,5.40
2019-03-21T10:12:04.650Z,9.53
2019-03-21T10:14:33.833Z,7.20
2019-03-21T10:17:03.159Z,6.47
2019-03-21T10:19:32.501Z,6.45
2019-03-21T10:22:01.669Z,5.83
2019-03-21T10:24:30.724Z,7.33
2019-03-21T10:27:00.103Z,6.97
2019-03-21T10:29:29.123Z,4.90
2019-03-21T10:31:58.339Z,6.90
2019-03-21T10:34:27.372Z,6.03
2019-03-21T10:36:56.689Z,4.93
2019-03-21T10:39:25.939Z,5.85
2019-03-21T10:41:55.271Z,5.37
2019-03-21T10:44:24.410Z,6.80
2019-03-21T10:46:53.715Z,6.03
2019-03-21T10:49:22.842Z,7.90
2019-03-21T10:51:55.146Z,8.30
2019-03-21T10:54:23.742Z,7.17
2019-03-21T10:56:53.243Z,7.07
2019-03-21T10:59:23.398Z,5.95
2019-03-21T11:01:52.550Z,8.57
2019-03-21T11:04:21.580Z,6.77
2019-03-21T11:06:59.912Z,8.90
2019-03-21T11:09:29.960Z,9.17
2019-03-21T11:11:59.209Z,4.90
2019-03-21T11:14:28.501Z,5.70
2019-03-21T11:16:57.900Z,6.10
2019-03-21T11:19:27.295Z,4.70
2019-03-21T11:22:05.798Z,5.57
2019-03-21T11:24:27.618Z,7.00
2019-03-21T11:26:57.546Z,8.57
2019-03-21T11:29:26.938Z,4.80
2019-03-21T11:31:56.233Z,4.67
2019-03-21T11:34:25.465Z,6.87
2019-03-21T11:36:54.560Z,7.10
2019-03-21T11:39:23.724Z,7.87
2019-03-21T11:41:52.898Z,7.67
2019-03-21T11:44:21.870Z,8.57
2019-03-21T11:46:51.043Z,9.67
2019-03-21T11:49:20.191Z,9.43
2019-03-21T11:51:49.589Z,9.17
2019-03-21T11:54:18.818Z,10.80
2019-03-21T11:56:48.081Z,6.80
2019-03-21T11:59:17.209Z,6.73
2019-03-21T12:01:46.543Z,6.90
2019-03-21T12:04:15.837Z,7.50
2019-03-21T12:06:45.014Z,8.73
2019-03-21T12:09:14.208Z,6.62
2019-03-21T12:11:43.474Z,6.43
2019-03-21T12:14:12.516Z,7.07
2019-03-21T12:16:41.734Z,5.90
2019-03-21T12:19:10.880Z,6.40
2019-03-21T12:21:40.047Z,7.33
2019-03-21T12:24:09.202Z,5.77
2019-03-21T12:26:38.313Z,7.97
2019-03-21T12:29:07.460Z,6.13
2019-03-21T12:31:37.017Z,7.13
2019-03-21T12:34:06.184Z,5.97
2019-03-21T12:36:35.446Z,6.50
2019-03-21T12:39:08.140Z,6.17
2019-03-21T12:41:37.438Z,7.03
2019-03-21T12:44:06.622Z,6.07
2019-03-21T12:46:35.842Z,8.23
2019-03-21T12:49:05.002Z,7.63
2019-03-21T12:51:34.573Z,9.30
2019-03-21T12:54:03.778Z,7.13
2019-03-21T12:56:32.782Z,6.73
2019-03-21T12:59:02.011Z,7.10
2019-03-21T13:01:32.385Z,7.03
2019-03-21T13:04:01.630Z,11.88
2019-03-21T13:06:30.676Z,7.80
2019-03-21T13:09:00.036Z,7.60
2019-03-21T13:11:29.157Z,6.43
2019-03-21T13:13:58.129Z,7.43
2019-03-21T13:16:27.423Z,10.13
2019-03-21T13:18:56.383Z,6.07
2019-03-21T13:21:25.905Z,5.10
2019-03-21T13:23:55.109Z,7.70
2019-03-21T13:26:24.231Z,8.33
2019-03-21T13:28:53.308Z,5.87
2019-03-21T13:31:22.344Z,9.08
2019-03-21T13:33:51.312Z,9.30
2019-03-21T13:36:20.349Z,9.70
2019-03-21T13:38:49.497Z,6.00
2019-03-21T13:41:18.848Z,6.80
2019-03-21T13:43:47.858Z,8.20
2019-03-21T13:46:17.143Z,9.27
2019-03-21T13:48:46.206Z,11.47
2019-03-21T13:51:15.416Z,8.57
2019-03-21T13:53:44.698Z,7.27
2019-03-21T13:56:13.856Z,10.83
2019-03-21T13:58:43.344Z,8.30
2019-03-21T14:01:12.736Z,6.47
2019-03-21T14:03:41.670Z,7.37
2019-03-21T14:06:11.783Z,10.03
2019-03-21T14:08:41.019Z,8.07
2019-03-21T14:11:10.274Z,7.27
2019-03-21T14:13:39.587Z,7.60
2019-03-21T14:16:08.847Z,9.88
2019-03-21T14:18:37.971Z,8.70
2019-03-21T14:21:07.103Z,8.97
2019-03-21T14:23:43.169Z,10.00
2019-03-21T14:26:07.851Z,15.30
2019-03-21T14:28:38.251Z,8.57
2019-03-21T14:31:07.571Z,9.37
2019-03-21T14:33:36.881Z,7.70
2019-03-21T14:36:06.254Z,8.07
2019-03-21T14:38:36.395Z,8.50
2019-03-21T14:41:05.581Z,8.23
2019-03-21T14:43:35.430Z,7.50
2019-03-21T14:46:04.643Z,10.27
2019-03-21T14:48:34.844Z,9.30
2019-03-21T14:51:04.081Z,7.97
2019-03-21T14:53:33.311Z,8.63
2019-03-21T14:56:02.399Z,10.43
2019-03-21T14:58:31.735Z,9.23
2019-03-21T15:01:00.987Z,10.77
2019-03-21T15:03:31.668Z,7.97
2019-03-21T15:06:02.060Z,12.00
2019-03-21T15:08:32.309Z,7.30
2019-03-21T15:11:01.484Z,7.80
2019-03-21T15:13:30.809Z,8.43
2019-03-21T15:16:00.132Z,7.10
2019-03-21T15:18:30.331Z,7.73
2019-03-21T15:20:59.535Z,7.33
2019-03-21T15:23:39.879Z,9.97
2019-03-21T15:26:00.156Z,9.40
2019-03-21T15:28:29.613Z,8.00
2019-03-21T15:30:58.853Z,6.33
2019-03-21T15:33:28.246Z,7.10
2019-03-21T15:35:58.318Z,7.73
2019-03-21T15:38:27.901Z,10.00
2019-03-21T15:40:57.335Z,10.03
2019-03-21T15:43:26.656Z,8.07
2019-03-21T15:45:55.958Z,7.73
2019-03-21T15:48:25.104Z,7.70
2019-03-21T15:51:03.850Z,8.77
2019-03-21T15:53:25.097Z,8.93
2019-03-21T15:55:54.390Z,7.27
2019-03-21T15:58:23.584Z,11.80
2019-03-21T16:00:52.999Z,9.67
2019-03-21T16:03:22.249Z,10.57
2019-03-21T16:05:51.674Z,9.17
2019-03-21T16:08:27.015Z,7.33
2019-03-21T16:10:54.498Z,8.80
2019-03-21T16:13:23.779Z,10.37
2019-03-21T16:15:52.862Z,10.63
2019-03-21T16:18:22.061Z,12.10
2019-03-21T16:20:51.480Z,23.07
2019-03-21T16:23:21.297Z,12.30
2019-03-21T16:25:52.437Z,11.00
2019-03-21T16:28:21.819Z,8.20
2019-03-21T16:30:50.941Z,11.83
2019-03-21T16:33:20.092Z,10.30
2019-03-21T16:35:49.260Z,13.60
2019-03-21T16:38:18.551Z,14.33
2019-03-21T16:40:47.796Z,25.13
2019-03-21T16:43:16.895Z,14.40
2019-03-21T16:45:46.197Z,10.00
2019-03-21T16:48:15.333Z,10.23
2019-03-21T16:50:44.569Z,9.80
2019-03-21T16:53:13.934Z,11.53
2019-03-21T16:55:43.336Z,14.13
2019-03-21T16:58:12.465Z,10.00
2019-03-21T17:00:41.545Z,9.57
2019-03-21T17:03:10.854Z,14.67
2019-03-21T17:05:40.025Z,11.00
2019-03-21T17:08:11.659Z,15.00
2019-03-21T17:10:39.958Z,19.30
2019-03-21T17:13:09.194Z,16.50
2019-03-21T17:15:38.381Z,21.47
2019-03-21T17:18:07.631Z,16.30
2019-03-21T17:20:36.914Z,14.37
2019-03-21T17:23:06.203Z,18.53
2019-03-21T17:25:35.464Z,17.40
2019-03-21T17:28:04.867Z,23.33
2019-03-21T17:30:34.099Z,23.90
2019-03-21T17:33:03.521Z,22.63
2019-03-21T17:35:32.904Z,32.63
2019-03-21T17:38:02.041Z,63.57
2019-03-21T17:40:31.448Z,180.57
2019-03-21T17:43:00.610Z,141.97
2019-03-21T17:45:29.859Z,52.07
2019-03-21T17:47:59.170Z,24.70
2019-03-21T17:50:28.173Z,24.67
2019-03-21T17:52:57.426Z,38.63
2019-03-21T17:55:26.650Z,38.00
2019-03-21T17:57:56.010Z,31.00
2019-03-21T18:00:26.209Z,26.47
2019-03-21T18:02:55.824Z,28.93
2019-03-21T18:05:25.272Z,25.80
2019-03-21T18:07:54.410Z,20.20
2019-03-21T18:10:30.888Z,23.27
2019-03-21T18:13:00.689Z,26.80
2019-03-21T18:15:30.176Z,23.67
2019-03-21T18:17:59.668Z,24.23
2019-03-21T18:20:28.778Z,33.90
2019-03-21T18:22:58.045Z,39.50
2019-03-21T18:25:28.239Z,39.03
2019-03-21T18:27:57.265Z,30.00
2019-03-21T18:30:26.372Z,39.87
2019-03-21T18:32:55.652Z,32.63
2019-03-21T18:35:24.954Z,33.53
2019-03-21T18:37:54.215Z,35.63
2019-03-21T18:40:23.556Z,35.27
2019-03-21T18:42:52.695Z,40.33
2019-03-21T18:45:21.906Z,47.03
2019-03-21T18:47:51.096Z,51.13
2019-03-21T18:50:20.385Z,48.60
2019-03-21T18:52:49.559Z,42.70
2019-03-21T18:55:18.846Z,27.67
2019-03-21T18:57:47.854Z,26.10
2019-03-21T19:00:17.577Z,31.30
2019-03-21T19:02:47.032Z,32.37
2019-03-21T19:05:16.260Z,23.23
2019-03-21T19:07:45.439Z,27.27
2019-03-21T19:10:15.151Z,27.33
2019-03-21T19:12:44.661Z,31.17
2019-03-21T19:15:14.242Z,27.37
2019-03-21T19:17:43.438Z,28.83
2019-03-21T19:20:14.349Z,28.33
2019-03-21T19:22:43.808Z,29.63
2019-03-21T19:25:18.511Z,29.37
2019-03-21T19:27:44.436Z,29.40
2019-03-21T19:30:13.713Z,29.07
2019-03-21T19:32:43.134Z,30.07
2019-03-21T19:35:12.906Z,30.73
2019-03-21T19:37:42.155Z,30.90
2019-03-21T19:40:11.395Z,32.23
2019-03-21T19:42:40.620Z,31.30
2019-03-21T19:45:10.098Z,32.50
2019-03-21T19:47:39.394Z,27.80
2019-03-21T19:50:09.625Z,27.63
2019-03-21T19:52:38.875Z,25.70
2019-03-21T19:55:08.579Z,23.33
2019-03-21T19:57:37.900Z,23.43
2019-03-21T20:00:09.857Z,24.23
2019-03-21T20:02:39.197Z,23.77
2019-03-21T20:05:08.876Z,24.53
2019-03-21T20:07:38.373Z,24.27
2019-03-21T20:10:08.324Z,24.03
2019-03-21T20:12:37.633Z,26.37
2019-03-21T20:15:07.990Z,31.80
2019-03-21T20:17:37.454Z,26.90
2019-03-21T20:20:08.314Z,26.80
2019-03-21T20:22:37.839Z,24.10
2019-03-21T20:25:07.929Z,27.27
2019-03-21T20:27:37.134Z,31.20
2019-03-21T20:30:07.892Z,26.13
2019-03-21T20:32:37.894Z,26.50
2019-03-21T20:35:08.052Z,30.33
2019-03-21T20:37:37.248Z,27.90
2019-03-21T20:40:07.071Z,23.70
2019-03-21T20:42:36.270Z,25.67
2019-03-21T20:45:06.718Z,26.80
2019-03-21T20:47:35.902Z,26.73
2019-03-21T20:50:06.342Z,30.50
2019-03-21T20:52:35.600Z,32.27
2019-03-21T20:55:05.657Z,28.30
2019-03-21T20:57:34.896Z,29.83
2019-03-21T21:00:05.384Z,30.27
2019-03-21T21:02:36.461Z,30.77
2019-03-21T21:05:05.851Z,27.53
2019-03-21T21:07:35.459Z,39.43
2019-03-21T21:10:05.468Z,38.03
2019-03-21T21:12:34.544Z,42.30
2019-03-21T21:15:04.116Z,39.70
2019-03-21T21:17:33.328Z,42.63
2019-03-21T21:20:02.444Z,35.27
2019-03-21T21:22:31.572Z,37.37
2019-03-21T21:25:00.758Z,43.83
2019-03-21T21:27:29.789Z,45.83
2019-03-21T21:29:58.904Z,40.97
2019-03-21T21:32:28.045Z,35.57
2019-03-21T21:34:57.184Z,35.37
2019-03-21T21:37:26.500Z,32.50
2019-03-21T21:39:55.779Z,29.03
2019-03-21T21:42:24.964Z,32.00
2019-03-21T21:44:54.199Z,36.53
2019-03-21T21:47:23.501Z,29.50
2019-03-21T21:49:52.544Z,29.87
2019-03-21T21:52:21.687Z,22.73
2019-03-21T21:54:50.853Z,24.33
2019-03-21T21:57:20.016Z,24.00
2019-03-21T21:59:49.142Z,24.10
2019-03-21T22:02:19.359Z,21.27
2019-03-21T22:04:48.524Z,24.47
2019-03-21T22:07:17.708Z,17.80
2019-03-21T22:09:47.079Z,18.33
2019-03-21T22:12:16.074Z,21.03
2019-03-21T22:14:46.378Z,20.50
2019-03-21T22:17:15.586Z,19.67
2019-03-21T22:19:44.747Z,20.80
2019-03-21T22:22:14.112Z,23.43
2019-03-21T22:24:43.215Z,32.77
2019-03-21T22:27:12.322Z,26.33
2019-03-21T22:29:41.352Z,26.23
2019-03-21T22:32:10.633Z,26.20
2019-03-21T22:34:39.747Z,23.33
2019-03-21T22:37:31.790Z,22.90
2019-03-21T22:40:00.984Z,23.63
2019-03-21T22:42:31.560Z,21.77
2019-03-21T22:45:00.967Z,18.40
2019-03-21T22:47:31.614Z,24.80
2019-03-21T22:50:00.679Z,19.60
2019-03-21T22:52:29.984Z,21.30
2019-03-21T22:54:58.998Z,21.70
2019-03-21T22:57:28.046Z,21.63
2019-03-21T22:59:58.255Z,22.37
2019-03-21T23:02:28.600Z,19.57
2019-03-21T23:04:57.854Z,24.70
2019-03-21T23:07:26.988Z,22.43
2019-03-21T23:09:56.061Z,25.63
2019-03-21T23:12:25.167Z,21.10
2019-03-21T23:14:54.270Z,28.80
2019-03-21T23:17:23.456Z,22.37
2019-03-21T23:19:52.612Z,24.20
2019-03-21T23:22:21.872Z,28.20
2019-03-21T23:24:51.155Z,27.07
2019-03-21T23:27:21.380Z,28.37
2019-03-21T23:29:50.369Z,19.30
2019-03-21T23:32:19.647Z,20.00
2019-03-21T23:34:48.762Z,18.13
2019-03-21T23:37:17.912Z,17.33
2019-03-21T23:39:48.401Z,17.27
2019-03-21T23:42:17.564Z,18.67
2019-03-21T23:44:46.867Z,17.67
2019-03-21T23:47:15.964Z,17.77
2019-03-21T23:49:45.212Z,16.40
2019-03-21T23:52:14.458Z,17.50
2019-03-21T23:54:43.620Z,17.17
2019-03-21T23:57:12.839Z,14.67
2019-03-21T23:59:42.095Z,17.20
